sensor_id;sensor_type;location;lat;lon;timestamp;pressure;altitude;pressure_sealevel;temperature;humidity
71195;BME280;58908;51.426;7.714;2023-04-19T00:01:44;100832.69;;;9.11;100.00
71195;BME280;58908;51.426;7.714;2023-04-19T00:04:10;100837.34;;;9.03;100.00
71195;BME280;58908;51.426;7.714;2023-04-19T00:06:39;100827.00;;;8.97;100.00
71195;BME280;58908;51.426;7.714;2023-04-19T00:09:06;100831.56;;;8.92;100.00
71195;BME280;58908;51.426;7.714;2023-04-19T00:11:33;100828.19;;;8.89;100.00
71195;BME280;58908;51.426;7.714;2023-04-19T00:13:59;100826.47;;;8.88;100.00
71195;BME280;58908;51.426;7.714;2023-04-19T00:16:26;100831.72;;;8.88;100.00
71195;BME280;58908;51.426;7.714;2023-04-19T00:18:52;100827.31;;;8.88;100.00
71195;BME280;58908;51.426;7.714;2023-04-19T00:21:18;100827.25;;;8.90;100.00
71195;BME280;58908;51.426;7.714;2023-04-19T00:23:45;100821.97;;;8.91;100.00
71195;BME280;58908;51.426;7.714;2023-04-19T00:26:11;100813.03;;;8.95;100.00
71195;BME280;58908;51.426;7.714;2023-04-19T00:28:40;100821.53;;;9.03;100.00
71195;BME280;58908;51.426;7.714;2023-04-19T00:31:07;100823.00;;;9.12;100.00
71195;BME280;58908;51.426;7.714;2023-04-19T00:33:33;100820.41;;;9.10;100.00
71195;BME280;58908;51.426;7.714;2023-04-19T00:35:59;100810.78;;;9.09;100.00
71195;BME280;58908;51.426;7.714;2023-04-19T00:38:25;100817.03;;;9.07;100.00
71195;BME280;58908;51.426;7.714;2023-04-19T00:40:52;100814.34;;;9.08;100.00
71195;BME280;58908;51.426;7.714;2023-04-19T00:43:18;100820.47;;;9.09;100.00
71195;BME280;58908;51.426;7.714;2023-04-19T00:45:46;100813.38;;;9.11;100.00
71195;BME280;58908;51.426;7.714;2023-04-19T00:48:13;100819.53;;;9.11;100.00
71195;BME280;58908;51.426;7.714;2023-04-19T00:50:39;100811.56;;;9.13;100.00
71195;BME280;58908;51.426;7.714;2023-04-19T00:53:06;100813.25;;;9.14;100.00
71195;BME280;58908;51.426;7.714;2023-04-19T00:55:32;100807.09;;;9.15;100.00
71195;BME280;58908;51.426;7.714;2023-04-19T00:57:59;100812.31;;;9.16;100.00
71195;BME280;58908;51.426;7.714;2023-04-19T01:00:25;100806.13;;;9.17;100.00
71195;BME280;58908;51.426;7.714;2023-04-19T01:02:53;100810.63;;;9.14;100.00
71195;BME280;58908;51.426;7.714;2023-04-19T01:05:20;100809.69;;;9.16;100.00
71195;BME280;58908;51.426;7.714;2023-04-19T01:07:46;100813.19;;;9.17;100.00
71195;BME280;58908;51.426;7.714;2023-04-19T01:10:12;100806.25;;;9.14;100.00
71195;BME280;58908;51.426;7.714;2023-04-19T01:12:39;100804.47;;;9.15;100.00
71195;BME280;58908;51.426;7.714;2023-04-19T01:15:06;100803.53;;;9.16;100.00
71195;BME280;58908;51.426;7.714;2023-04-19T01:17:32;100797.41;;;9.17;100.00
71195;BME280;58908;51.426;7.714;2023-04-19T01:20:01;100800.03;;;9.17;100.00
71195;BME280;58908;51.426;7.714;2023-04-19T01:22:29;100797.41;;;9.17;100.00
71195;BME280;58908;51.426;7.714;2023-04-19T01:24:56;100800.81;;;9.19;100.00
71195;BME280;58908;51.426;7.714;2023-04-19T01:27:22;100796.47;;;9.18;100.00
71195;BME280;58908;51.426;7.714;2023-04-19T01:29:48;100787.66;;;9.19;100.00
71195;BME280;58908;51.426;7.714;2023-04-19T01:32:15;100798.13;;;9.20;100.00
71195;BME280;58908;51.426;7.714;2023-04-19T01:34:41;100797.28;;;9.20;100.00
71195;BME280;58908;51.426;7.714;2023-04-19T01:37:08;100801.50;;;9.24;100.00
71195;BME280;58908;51.426;7.714;2023-04-19T01:39:35;100804.13;;;9.24;100.00
71195;BME280;58908;51.426;7.714;2023-04-19T01:42:02;100797.16;;;9.23;100.00
71195;BME280;58908;51.426;7.714;2023-04-19T01:44:28;100789.25;;;9.23;100.00
71195;BME280;58908;51.426;7.714;2023-04-19T01:46:54;100795.50;;;9.20;100.00
71195;BME280;58908;51.426;7.714;2023-04-19T01:49:21;100785.88;;;9.19;100.00
71195;BME280;58908;51.426;7.714;2023-04-19T01:51:47;100789.41;;;9.18;100.00
71195;BME280;58908;51.426;7.714;2023-04-19T01:54:13;100792.00;;;9.20;100.00
71195;BME280;58908;51.426;7.714;2023-04-19T01:56:41;100790.22;;;9.20;100.00
71195;BME280;58908;51.426;7.714;2023-04-19T01:59:07;100802.47;;;9.21;100.00
71195;BME280;58908;51.426;7.714;2023-04-19T02:01:33;100795.56;;;9.19;100.00
71195;BME280;58908;51.426;7.714;2023-04-19T02:04:00;100792.97;;;9.17;100.00
71195;BME280;58908;51.426;7.714;2023-04-19T02:06:27;100790.34;;;9.17;100.00
71195;BME280;58908;51.426;7.714;2023-04-19T02:08:53;100784.13;;;9.20;100.00
71195;BME280;58908;51.426;7.714;2023-04-19T02:11:19;100784.22;;;9.17;100.00
71195;BME280;58908;51.426;7.714;2023-04-19T02:13:47;100787.59;;;9.20;100.00
71195;BME280;58908;51.426;7.714;2023-04-19T02:16:14;100788.50;;;9.19;100.00
71195;BME280;58908;51.426;7.714;2023-04-19T02:18:40;100793.78;;;9.19;100.00
71195;BME280;58908;51.426;7.714;2023-04-19T02:21:07;100791.06;;;9.22;100.00
71195;BME280;58908;51.426;7.714;2023-04-19T02:23:33;100788.59;;;9.18;100.00
71195;BME280;58908;51.426;7.714;2023-04-19T02:26:00;100787.75;;;9.16;100.00
71195;BME280;58908;51.426;7.714;2023-04-19T02:28:27;100788.63;;;9.16;100.00
71195;BME280;58908;51.426;7.714;2023-04-19T02:30:55;100779.06;;;9.14;100.00
71195;BME280;58908;51.426;7.714;2023-04-19T02:33:21;100788.78;;;9.12;100.00
71195;BME280;58908;51.426;7.714;2023-04-19T02:35:48;100785.34;;;9.10;100.00
71195;BME280;58908;51.426;7.714;2023-04-19T02:38:14;100785.34;;;9.10;100.00
71195;BME280;58908;51.426;7.714;2023-04-19T02:40:40;100779.28;;;9.08;100.00
71195;BME280;58908;51.426;7.714;2023-04-19T02:43:06;100775.72;;;9.09;100.00
71195;BME280;58908;51.426;7.714;2023-04-19T02:45:33;100779.22;;;9.09;100.00
71195;BME280;58908;51.426;7.714;2023-04-19T02:48:00;100781.13;;;9.06;100.00
71195;BME280;58908;51.426;7.714;2023-04-19T02:50:26;100765.41;;;9.03;100.00
71195;BME280;58908;51.426;7.714;2023-04-19T02:52:53;100776.91;;;9.00;100.00
71195;BME280;58908;51.426;7.714;2023-04-19T02:55:19;100779.59;;;8.99;100.00
71195;BME280;58908;51.426;7.714;2023-04-19T02:57:45;100784.06;;;8.97;100.00
71195;BME280;58908;51.426;7.714;2023-04-19T03:00:12;100779.00;;;8.91;100.00
71195;BME280;58908;51.426;7.714;2023-04-19T03:02:39;100783.41;;;8.90;100.00
71195;BME280;58908;51.426;7.714;2023-04-19T03:05:09;100780.81;;;8.89;100.00
71195;BME280;58908;51.426;7.714;2023-04-19T03:07:35;100778.22;;;8.87;100.00
71195;BME280;58908;51.426;7.714;2023-04-19T03:10:02;100782.66;;;8.87;100.00
71195;BME280;58908;51.426;7.714;2023-04-19T03:12:28;100782.81;;;8.82;100.00
71195;BME280;58908;51.426;7.714;2023-04-19T03:14:54;100774.91;;;8.82;100.00
71195;BME280;58908;51.426;7.714;2023-04-19T03:17:21;100771.47;;;8.80;100.00
71195;BME280;58908;51.426;7.714;2023-04-19T03:19:47;100778.50;;;8.80;100.00
71195;BME280;58908;51.426;7.714;2023-04-19T03:22:14;100769.00;;;8.76;100.00
71195;BME280;58908;51.426;7.714;2023-04-19T03:24:41;100768.13;;;8.75;100.00
71195;BME280;58908;51.426;7.714;2023-04-19T03:27:07;100764.69;;;8.73;100.00
71195;BME280;58908;51.426;7.714;2023-04-19T03:29:33;100770.88;;;8.72;100.00
71195;BME280;58908;51.426;7.714;2023-04-19T03:31:59;100763.94;;;8.70;100.00
71195;BME280;58908;51.426;7.714;2023-04-19T03:34:26;100768.38;;;8.68;100.00
71195;BME280;58908;51.426;7.714;2023-04-19T03:36:52;100764.84;;;8.69;100.00
71195;BME280;58908;51.426;7.714;2023-04-19T03:39:20;100757.88;;;8.68;100.00
71195;BME280;58908;51.426;7.714;2023-04-19T03:41:46;100757.09;;;8.64;100.00
71195;BME280;58908;51.426;7.714;2023-04-19T03:44:12;100762.47;;;8.61;100.00
71195;BME280;58908;51.426;7.714;2023-04-19T03:46:38;100758.09;;;8.62;100.00
71195;BME280;58908;51.426;7.714;2023-04-19T03:49:05;100758.09;;;8.62;100.00
71195;BME280;58908;51.426;7.714;2023-04-19T03:51:31;100759.94;;;8.58;100.00
71195;BME280;58908;51.426;7.714;2023-04-19T03:53:57;100753.06;;;8.54;100.00
71195;BME280;58908;51.426;7.714;2023-04-19T03:56:25;100756.59;;;8.53;100.00
71195;BME280;58908;51.426;7.714;2023-04-19T03:58:51;100753.13;;;8.53;100.00
71195;BME280;58908;51.426;7.714;2023-04-19T04:01:17;100759.28;;;8.52;100.00
71195;BME280;58908;51.426;7.714;2023-04-19T04:03:44;100758.53;;;8.48;100.00
71195;BME280;58908;51.426;7.714;2023-04-19T04:06:10;100757.75;;;8.45;100.00
71195;BME280;58908;51.426;7.714;2023-04-19T04:08:37;100762.22;;;8.43;100.00
71195;BME280;58908;51.426;7.714;2023-04-19T04:11:03;100759.63;;;8.41;100.00
71195;BME280;58908;51.426;7.714;2023-04-19T04:13:31;100758.81;;;8.39;100.00
71195;BME280;58908;51.426;7.714;2023-04-19T04:15:57;100755.44;;;8.36;100.00
71195;BME280;58908;51.426;7.714;2023-04-19T04:18:24;100760.75;;;8.34;100.00
71195;BME280;58908;51.426;7.714;2023-04-19T04:20:51;100755.56;;;8.31;100.00
71195;BME280;58908;51.426;7.714;2023-04-19T04:23:17;100764.44;;;8.29;100.00
71195;BME280;58908;51.426;7.714;2023-04-19T04:25:45;100767.06;;;8.29;100.00
71195;BME280;58908;51.426;7.714;2023-04-19T04:28:11;100769.72;;;8.27;100.00
71195;BME280;58908;51.426;7.714;2023-04-19T04:30:40;100766.31;;;8.25;100.00
71195;BME280;58908;51.426;7.714;2023-04-19T04:33:06;100770.75;;;8.23;100.00
71195;BME280;58908;51.426;7.714;2023-04-19T04:35:35;100771.72;;;8.19;100.00
71195;BME280;58908;51.426;7.714;2023-04-19T04:38:02;100769.91;;;8.21;100.00
71195;BME280;58908;51.426;7.714;2023-04-19T04:40:29;100770.09;;;8.15;100.00
71195;BME280;58908;51.426;7.714;2023-04-19T04:42:56;100777.09;;;8.15;100.00
71195;BME280;58908;51.426;7.714;2023-04-19T04:45:24;100768.38;;;8.14;100.00
71195;BME280;58908;51.426;7.714;2023-04-19T04:47:54;100767.59;;;8.11;100.00
71195;BME280;58908;51.426;7.714;2023-04-19T04:50:20;100768.63;;;8.07;100.00
71195;BME280;58908;51.426;7.714;2023-04-19T04:52:46;100765.16;;;8.05;100.00
71195;BME280;58908;51.426;7.714;2023-04-19T04:55:13;100762.84;;;7.96;100.00
71195;BME280;58908;51.426;7.714;2023-04-19T04:57:39;100772.50;;;7.94;100.00
71195;BME280;58908;51.426;7.714;2023-04-19T05:00:06;100777.97;;;7.86;100.00
71195;BME280;58908;51.426;7.714;2023-04-19T05:02:33;100785.16;;;7.81;100.00
71195;BME280;58908;51.426;7.714;2023-04-19T05:05:00;100781.63;;;7.82;100.00
71195;BME280;58908;51.426;7.714;2023-04-19T05:07:27;100782.63;;;7.78;100.00
71195;BME280;58908;51.426;7.714;2023-04-19T05:09:53;100782.66;;;7.77;100.00
71195;BME280;58908;51.426;7.714;2023-04-19T05:12:20;100779.22;;;7.75;100.00
71195;BME280;58908;51.426;7.714;2023-04-19T05:14:46;100783.59;;;7.74;100.00
71195;BME280;58908;51.426;7.714;2023-04-19T05:17:12;100781.06;;;7.71;100.00
71195;BME280;58908;51.426;7.714;2023-04-19T05:19:38;100785.69;;;7.63;100.00
71195;BME280;58908;51.426;7.714;2023-04-19T05:22:06;100785.69;;;7.63;100.00
71195;BME280;58908;51.426;7.714;2023-04-19T05:24:32;100792.63;;;7.66;100.00
71195;BME280;58908;51.426;7.714;2023-04-19T05:26:58;100780.38;;;7.66;100.00
71195;BME280;58908;51.426;7.714;2023-04-19T05:29:25;100783.81;;;7.68;100.00
71195;BME280;58908;51.426;7.714;2023-04-19T05:31:52;100787.03;;;7.76;100.00
71195;BME280;58908;51.426;7.714;2023-04-19T05:34:18;100776.41;;;7.81;100.00
71195;BME280;58908;51.426;7.714;2023-04-19T05:36:44;100779.50;;;7.95;100.00
71195;BME280;58908;51.426;7.714;2023-04-19T05:39:12;100778.66;;;7.93;100.00
71195;BME280;58908;51.426;7.714;2023-04-19T05:41:38;100781.75;;;8.07;100.00
71195;BME280;58908;51.426;7.714;2023-04-19T05:44:05;100777.47;;;8.03;97.88
71195;BME280;58908;51.426;7.714;2023-04-19T05:46:31;100776.44;;;8.08;95.46
71195;BME280;58908;51.426;7.714;2023-04-19T05:48:57;100776.94;;;8.21;95.76
71195;BME280;58908;51.426;7.714;2023-04-19T05:51:23;100776.00;;;8.23;94.43
71195;BME280;58908;51.426;7.714;2023-04-19T05:53:50;100772.97;;;8.08;94.74
71195;BME280;58908;51.426;7.714;2023-04-19T05:56:18;100774.91;;;8.01;91.38
71195;BME280;58908;51.426;7.714;2023-04-19T05:58:45;100765.84;;;8.11;89.94
71195;BME280;58908;51.426;7.714;2023-04-19T06:01:11;100777.03;;;8.18;89.92
71195;BME280;58908;51.426;7.714;2023-04-19T06:03:37;100772.84;;;8.11;87.85
71195;BME280;58908;51.426;7.714;2023-04-19T06:06:03;100772.66;;;8.18;86.27
71195;BME280;58908;51.426;7.714;2023-04-19T06:08:30;100768.41;;;8.13;85.83
71195;BME280;58908;51.426;7.714;2023-04-19T06:10:56;100769.81;;;7.97;85.04
71195;BME280;58908;51.426;7.714;2023-04-19T06:13:24;100775.19;;;7.92;84.86
71195;BME280;58908;51.426;7.714;2023-04-19T06:15:50;100772.84;;;7.83;83.28
71195;BME280;58908;51.426;7.714;2023-04-19T06:18:16;100774.66;;;7.81;83.67
71195;BME280;58908;51.426;7.714;2023-04-19T06:20:43;100772.31;;;7.71;83.18
71195;BME280;58908;51.426;7.714;2023-04-19T06:23:09;100763.75;;;7.95;81.24
71195;BME280;58908;51.426;7.714;2023-04-19T06:25:36;100765.44;;;8.25;82.67
71195;BME280;58908;51.426;7.714;2023-04-19T06:28:03;100772.84;;;7.83;82.60
71195;BME280;58908;51.426;7.714;2023-04-19T06:30:31;100768.78;;;8.01;82.07
71195;BME280;58908;51.426;7.714;2023-04-19T06:32:57;100776.56;;;8.59;80.69
71195;BME280;58908;51.426;7.714;2023-04-19T06:35:24;100775.31;;;8.70;79.96
71195;BME280;58908;51.426;7.714;2023-04-19T06:37:50;100775.16;;;8.75;81.02
71195;BME280;58908;51.426;7.714;2023-04-19T06:40:16;100770.91;;;8.19;81.17
71195;BME280;58908;51.426;7.714;2023-04-19T06:42:43;100775.06;;;7.97;84.00
71195;BME280;58908;51.426;7.714;2023-04-19T06:45:09;100768.63;;;8.07;84.08
71195;BME280;58908;51.426;7.714;2023-04-19T06:47:37;100771.22;;;8.62;83.30
71195;BME280;58908;51.426;7.714;2023-04-19T06:50:04;100761.09;;;9.25;81.03
71195;BME280;58908;51.426;7.714;2023-04-19T06:52:31;100754.56;;;10.26;76.99
71195;BME280;58908;51.426;7.714;2023-04-19T06:54:57;100754.84;;;11.22;71.10
71195;BME280;58908;51.426;7.714;2023-04-19T06:57:23;100755.25;;;11.33;68.11
71195;BME280;58908;51.426;7.714;2023-04-19T06:59:50;100761.94;;;10.18;67.19
71195;BME280;58908;51.426;7.714;2023-04-19T07:02:18;100749.53;;;11.23;63.61
71195;BME280;58908;51.426;7.714;2023-04-19T07:04:46;100754.00;;;10.81;62.58
71195;BME280;58908;51.426;7.714;2023-04-19T07:07:12;100755.66;;;10.84;61.14
71195;BME280;58908;51.426;7.714;2023-04-19T07:09:38;100760.94;;;10.21;63.17
71195;BME280;58908;51.426;7.714;2023-04-19T07:12:05;100753.13;;;10.61;62.75
71195;BME280;58908;51.426;7.714;2023-04-19T07:14:31;100755.63;;;11.05;61.31
71195;BME280;58908;51.426;7.714;2023-04-19T07:17:02;100757.97;;;10.91;61.01
71195;BME280;58908;51.426;7.714;2023-04-19T07:19:28;100759.78;;;10.91;60.54
71195;BME280;58908;51.426;7.714;2023-04-19T07:21:56;100759.88;;;10.68;59.90
71195;BME280;58908;51.426;7.714;2023-04-19T07:24:23;100752.84;;;10.88;60.04
71195;BME280;58908;51.426;7.714;2023-04-19T07:26:50;100759.34;;;10.60;61.56
71195;BME280;58908;51.426;7.714;2023-04-19T07:29:16;100766.34;;;9.95;61.37
71195;BME280;58908;51.426;7.714;2023-04-19T07:31:43;100759.69;;;10.08;60.52
71195;BME280;58908;51.426;7.714;2023-04-19T07:34:09;100761.38;;;10.53;61.36
71195;BME280;58908;51.426;7.714;2023-04-19T07:36:35;100760.22;;;10.17;61.59
71195;BME280;58908;51.426;7.714;2023-04-19T07:39:04;100757.38;;;10.43;61.29
71195;BME280;58908;51.426;7.714;2023-04-19T07:41:30;100757.28;;;10.66;60.37
71195;BME280;58908;51.426;7.714;2023-04-19T07:43:56;100751.06;;;10.26;62.91
71195;BME280;58908;51.426;7.714;2023-04-19T07:46:23;100757.94;;;10.71;61.37
71195;BME280;58908;51.426;7.714;2023-04-19T07:48:49;100756.75;;;10.58;60.47
71195;BME280;58908;51.426;7.714;2023-04-19T07:51:16;100755.66;;;10.42;62.18
71195;BME280;58908;51.426;7.714;2023-04-19T07:53:43;100762.81;;;9.50;63.41
71195;BME280;58908;51.426;7.714;2023-04-19T07:56:10;100756.72;;;10.17;62.49
71195;BME280;58908;51.426;7.714;2023-04-19T07:58:37;100759.47;;;10.14;62.70
71195;BME280;58908;51.426;7.714;2023-04-19T08:01:05;100763.50;;;9.78;62.61
71195;BME280;58908;51.426;7.714;2023-04-19T08:03:32;100765.09;;;9.59;62.46
71195;BME280;58908;51.426;7.714;2023-04-19T08:05:59;100789.63;;;10.07;61.48
71195;BME280;58908;51.426;7.714;2023-04-19T08:08:26;100773.69;;;10.53;62.34
71195;BME280;58908;51.426;7.714;2023-04-19T08:10:52;100764.41;;;10.00;61.06
71195;BME280;58908;51.426;7.714;2023-04-19T08:13:21;100781.41;;;9.91;61.68
71195;BME280;58908;51.426;7.714;2023-04-19T08:15:47;100765.53;;;10.37;62.19
71195;BME280;58908;51.426;7.714;2023-04-19T08:18:13;100760.69;;;11.68;59.74
71195;BME280;58908;51.426;7.714;2023-04-19T08:20:40;100759.78;;;11.88;58.89
71195;BME280;58908;51.426;7.714;2023-04-19T08:23:07;100755.34;;;11.11;59.49
71195;BME280;58908;51.426;7.714;2023-04-19T08:25:35;100769.63;;;11.07;59.03
71195;BME280;58908;51.426;7.714;2023-04-19T08:28:01;100768.41;;;10.53;59.63
71195;BME280;58908;51.426;7.714;2023-04-19T08:30:29;100754.59;;;10.68;59.22
71195;BME280;58908;51.426;7.714;2023-04-19T08:32:57;100764.00;;;10.53;59.10
71195;BME280;58908;51.426;7.714;2023-04-19T08:35:25;100762.34;;;10.51;59.64
71195;BME280;58908;51.426;7.714;2023-04-19T08:37:51;100770.13;;;9.88;59.73
71195;BME280;58908;51.426;7.714;2023-04-19T08:40:18;100765.28;;;9.99;59.51
71195;BME280;58908;51.426;7.714;2023-04-19T08:42:44;100760.91;;;11.05;57.93
71195;BME280;58908;51.426;7.714;2023-04-19T08:45:10;100752.44;;;10.77;56.64
71195;BME280;58908;51.426;7.714;2023-04-19T08:47:39;100749.81;;;11.17;55.58
71195;BME280;58908;51.426;7.714;2023-04-19T08:50:06;100752.19;;;10.83;53.82
71195;BME280;58908;51.426;7.714;2023-04-19T08:52:33;100734.00;;;11.93;53.05
71195;BME280;58908;51.426;7.714;2023-04-19T08:55:00;100737.50;;;11.55;53.29
71195;BME280;58908;51.426;7.714;2023-04-19T08:57:28;100745.41;;;11.36;52.91
71195;BME280;58908;51.426;7.714;2023-04-19T08:59:55;100742.13;;;11.11;53.07
71195;BME280;58908;51.426;7.714;2023-04-19T09:02:22;100741.06;;;11.35;53.82
71195;BME280;58908;51.426;7.714;2023-04-19T09:04:49;100747.91;;;11.01;52.70
71195;BME280;58908;51.426;7.714;2023-04-19T09:07:22;100733.13;;;11.74;52.45
71195;BME280;58908;51.426;7.714;2023-04-19T09:09:54;100740.47;;;11.09;52.42
71195;BME280;58908;51.426;7.714;2023-04-19T09:12:29;100736.69;;;12.09;53.12
71195;BME280;58908;51.426;7.714;2023-04-19T09:14:59;100726.50;;;12.37;48.65
71195;BME280;58908;51.426;7.714;2023-04-19T09:17:25;100723.91;;;11.44;51.22
71195;BME280;58908;51.426;7.714;2023-04-19T09:19:53;100721.25;;;11.25;50.30
71195;BME280;58908;51.426;7.714;2023-04-19T09:22:19;100728.53;;;11.20;50.93
71195;BME280;58908;51.426;7.714;2023-04-19T09:24:46;100720.00;;;10.54;50.18
71195;BME280;58908;51.426;7.714;2023-04-19T09:27:12;100736.59;;;11.17;50.31
71195;BME280;58908;51.426;7.714;2023-04-19T09:29:39;100742.81;;;10.96;49.27
71195;BME280;58908;51.426;7.714;2023-04-19T09:32:06;100729.88;;;11.10;49.10
71195;BME280;58908;51.426;7.714;2023-04-19T09:34:32;100712.81;;;11.56;48.60
71195;BME280;58908;51.426;7.714;2023-04-19T09:37:11;100712.94;;;12.26;48.25
71195;BME280;58908;51.426;7.714;2023-04-19T09:39:38;100706.75;;;12.44;46.84
71195;BME280;58908;51.426;7.714;2023-04-19T09:42:04;100701.63;;;12.06;47.72
71195;BME280;58908;51.426;7.714;2023-04-19T09:44:31;100703.50;;;11.29;48.45
71195;BME280;58908;51.426;7.714;2023-04-19T09:46:59;100696.53;;;12.37;46.81
71195;BME280;58908;51.426;7.714;2023-04-19T09:49:25;100698.63;;;12.30;46.08
71195;BME280;58908;51.426;7.714;2023-04-19T09:51:52;100693.91;;;12.01;45.60
71195;BME280;58908;51.426;7.714;2023-04-19T09:54:20;100683.47;;;12.68;46.69
71195;BME280;58908;51.426;7.714;2023-04-19T09:56:47;100681.09;;;12.11;46.39
71195;BME280;58908;51.426;7.714;2023-04-19T09:59:13;100676.75;;;13.12;47.45
71195;BME280;58908;51.426;7.714;2023-04-19T10:01:42;100684.13;;;12.20;46.84
71195;BME280;58908;51.426;7.714;2023-04-19T10:04:08;100676.78;;;11.73;47.27
71195;BME280;58908;51.426;7.714;2023-04-19T10:06:35;100688.31;;;11.34;47.55
71195;BME280;58908;51.426;7.714;2023-04-19T10:09:01;100686.66;;;11.50;47.15
71195;BME280;58908;51.426;7.714;2023-04-19T10:11:30;100685.72;;;11.32;49.10
71195;BME280;58908;51.426;7.714;2023-04-19T10:13:59;100676.66;;;11.56;48.42
71195;BME280;58908;51.426;7.714;2023-04-19T10:16:27;100679.94;;;11.24;45.68
71195;BME280;58908;51.426;7.714;2023-04-19T10:18:55;100697.63;;;10.42;44.99
71195;BME280;58908;51.426;7.714;2023-04-19T10:21:22;100687.22;;;10.59;46.69
71195;BME280;58908;51.426;7.714;2023-04-19T10:23:48;100685.16;;;11.44;47.50
71195;BME280;58908;51.426;7.714;2023-04-19T10:26:15;100683.16;;;12.40;48.01
71195;BME280;58908;51.426;7.714;2023-04-19T10:35:41;100653.41;;;12.18;46.48
71195;BME280;58908;51.426;7.714;2023-04-19T10:38:17;100641.25;;;11.23;46.12
71195;BME280;58908;51.426;7.714;2023-04-19T10:41:03;100648.03;;;12.02;47.66
71195;BME280;58908;51.426;7.714;2023-04-19T10:43:38;100648.09;;;12.01;47.99
71195;BME280;58908;51.426;7.714;2023-04-19T10:46:05;100645.41;;;12.53;44.11
71195;BME280;58908;51.426;7.714;2023-04-19T10:48:33;100643.69;;;12.35;44.73
71195;BME280;58908;51.426;7.714;2023-04-19T10:51:10;100642.16;;;12.48;42.79
71195;BME280;58908;51.426;7.714;2023-04-19T10:53:56;100638.25;;;11.31;43.66
71195;BME280;58908;51.426;7.714;2023-04-19T10:56:58;100633.97;;;12.53;44.06
71195;BME280;58908;51.426;7.714;2023-04-19T11:02:35;100624.66;;;12.10;44.58
71195;BME280;58908;51.426;7.714;2023-04-19T11:05:05;100630.53;;;12.34;45.03
71195;BME280;58908;51.426;7.714;2023-04-19T11:07:40;100612.34;;;12.28;44.29
71195;BME280;58908;51.426;7.714;2023-04-19T11:10:10;100617.63;;;12.11;43.24
71195;BME280;58908;51.426;7.714;2023-04-19T11:12:40;100620.16;;;11.95;43.45
71195;BME280;58908;51.426;7.714;2023-04-19T11:15:07;100620.63;;;12.20;43.93
71195;BME280;58908;51.426;7.714;2023-04-19T11:17:41;100597.00;;;12.51;43.05
71195;BME280;58908;51.426;7.714;2023-04-19T11:20:10;100607.09;;;12.43;44.40
71195;BME280;58908;51.426;7.714;2023-04-19T11:22:43;100599.06;;;12.79;44.17
71195;BME280;58908;51.426;7.714;2023-04-19T11:25:13;100598.78;;;12.34;43.73
71195;BME280;58908;51.426;7.714;2023-04-19T11:27:42;100591.34;;;12.74;44.35
71195;BME280;58908;51.426;7.714;2023-04-19T11:30:12;100585.09;;;12.43;43.61
71195;BME280;58908;51.426;7.714;2023-04-19T11:32:49;100570.31;;;12.39;44.89
71195;BME280;58908;51.426;7.714;2023-04-19T11:35:20;100573.19;;;12.51;44.03
71195;BME280;58908;51.426;7.714;2023-04-19T11:37:48;100568.06;;;12.81;44.22
71195;BME280;58908;51.426;7.714;2023-04-19T11:40:19;100568.63;;;12.21;41.99
71195;BME280;58908;51.426;7.714;2023-04-19T11:42:57;100565.56;;;12.45;42.40
71195;BME280;58908;51.426;7.714;2023-04-19T11:45:27;100570.28;;;12.73;43.47
71195;BME280;58908;51.426;7.714;2023-04-19T11:47:54;100550.69;;;12.43;43.85
71195;BME280;58908;51.426;7.714;2023-04-19T11:50:30;100553.00;;;12.49;42.88
71195;BME280;58908;51.426;7.714;2023-04-19T11:53:11;100561.50;;;12.55;44.12
71195;BME280;58908;51.426;7.714;2023-04-19T11:55:40;100567.75;;;12.37;45.00
71195;BME280;58908;51.426;7.714;2023-04-19T11:58:08;100559.09;;;11.83;43.65
71195;BME280;58908;51.426;7.714;2023-04-19T12:00:35;100549.31;;;12.02;45.29
71195;BME280;58908;51.426;7.714;2023-04-19T12:03:01;100540.22;;;12.24;47.12
71195;BME280;58908;51.426;7.714;2023-04-19T12:05:28;100553.59;;;12.71;46.35
71195;BME280;58908;51.426;7.714;2023-04-19T12:08:02;100542.16;;;12.21;44.61
71195;BME280;58908;51.426;7.714;2023-04-19T12:10:30;100539.41;;;12.39;44.28
71195;BME280;58908;51.426;7.714;2023-04-19T12:12:56;100531.59;;;12.53;45.33
71195;BME280;58908;51.426;7.714;2023-04-19T12:15:23;100533.06;;;12.91;45.74
71195;BME280;58908;51.426;7.714;2023-04-19T12:17:56;100527.91;;;12.73;43.88
71195;BME280;58908;51.426;7.714;2023-04-19T12:20:29;100526.16;;;12.56;42.72
71195;BME280;58908;51.426;7.714;2023-04-19T12:22:55;100531.16;;;12.95;43.86
71195;BME280;58908;51.426;7.714;2023-04-19T12:25:21;100515.38;;;12.92;44.08
71195;BME280;58908;51.426;7.714;2023-04-19T12:27:53;100517.59;;;12.84;40.86
71195;BME280;58908;51.426;7.714;2023-04-19T12:30:20;100521.50;;;12.77;38.79
71195;BME280;58908;51.426;7.714;2023-04-19T12:32:46;100513.31;;;12.81;39.16
71195;BME280;58908;51.426;7.714;2023-04-19T12:35:12;100514.56;;;12.74;36.85
71195;BME280;58908;51.426;7.714;2023-04-19T12:37:38;100519.25;;;13.02;37.21
71195;BME280;58908;51.426;7.714;2023-04-19T12:40:05;100512.25;;;12.53;36.86
71195;BME280;58908;51.426;7.714;2023-04-19T12:42:32;100512.91;;;12.89;37.20
71195;BME280;58908;51.426;7.714;2023-04-19T12:44:59;100508.44;;;12.74;37.51
71195;BME280;58908;51.426;7.714;2023-04-19T12:47:26;100514.50;;;12.43;37.68
71195;BME280;58908;51.426;7.714;2023-04-19T12:49:52;100509.06;;;12.46;38.62
71195;BME280;58908;51.426;7.714;2023-04-19T12:52:20;100512.56;;;12.79;38.09
71195;BME280;58908;51.426;7.714;2023-04-19T12:54:46;100505.09;;;12.70;38.15
71195;BME280;58908;51.426;7.714;2023-04-19T12:57:12;100498.78;;;12.40;37.97
71195;BME280;58908;51.426;7.714;2023-04-19T12:59:38;100499.13;;;12.67;38.26
71195;BME280;58908;51.426;7.714;2023-04-19T13:02:06;100491.53;;;12.76;37.42